Terminal Aerodrome Forecast
Issued by NWS

Home | Current Version | Previous Version | Text Only | Print | Product List | Glossary On
Versions: 1 2 3 4 5 6 7 8 9 10 11 12 13 14 15 16 17 18
284
FTUS43 KJKL 291138
TAFSJS
TAF
KSJS 291138Z 2912/3012 35003KT P6SM SCT015 BKN025
     FM291500 35005KT P6SM SCT025 BKN035
     FM291700 35007KT P6SM BKN035
     FM292200 35005KT P6SM SCT040
     FM300000 36004KT P6SM SCT200=

USA.gov is the U.S. government's official web portal to all federal, state and local government web resources and services.